Time;durP1;ratioP1;P1;durP2;ratioP2;P2;SDS_P1;SDS_P2;PMS_P1;PMS_P2;Temp;Humidity;BMP_temperature;BMP_pressure;BME280_temperature;BME280_humidity;BME280_pressure;Samples;Min_cycle;Max_cycle;Signal;HPM_P1;HPM_P2
2021/08/12 03:32:27;;;;;;;8.17;6.20;;;;;;;21.42;60.86;99122.88;8584629;22;20209;-83
2021/08/12 03:35:49;;;;;;;6.90;6.30;;;;;;;20.64;61.24;99003.44;8579248;23;20183;-82
2021/08/12 03:39:11;;;;;;;6.67;5.97;;;;;;;21.43;60.91;99127.28;8579471;23;20186;-81
2021/08/12 03:42:32;;;;;;;8.40;6.87;;;;;;;21.25;61.29;99116.75;8578997;23;20209;-82
2021/08/12 03:45:54;;;;;;;8.37;6.37;;;;;;;21.38;60.94;99127.28;8581059;23;20186;-83
2021/08/12 03:49:18;;;;;;;10.50;6.70;;;;;;;21.58;60.47;99123.78;8593298;23;20189;-81
2021/08/12 03:52:39;;;;;;;10.40;7.10;;;;;;;21.38;60.63;99127.28;8608484;23;20198;-81
2021/08/12 03:56:01;;;;;;;7.43;6.47;;;;;;;21.45;60.66;99124.28;8601125;23;20179;-81
2021/08/12 03:59:22;;;;;;;9.10;6.30;;;;;;;21.36;60.81;99118.47;8598149;23;20171;-81
2021/08/12 04:02:44;;;;;;;8.23;6.53;;;;;;;21.53;59.86;99113.63;8595613;23;20206;-81
2021/08/12 04:06:07;;;;;;;10.17;6.57;;;;;;;21.27;60.29;99107.47;8607401;23;20176;-81
2021/08/12 04:09:28;;;;;;;7.63;6.23;;;;;;;21.42;60.13;99125.63;8593500;23;20833;-81
2021/08/12 04:12:50;;;;;;;7.30;6.60;;;;;;;21.36;60.45;99125.91;8591915;23;20521;-80
2021/08/12 04:16:12;;;;;;;7.40;6.60;;;;;;;21.16;60.29;99133.19;8598296;23;20178;-81
2021/08/12 04:19:33;;;;;;;7.93;6.77;;;;;;;21.13;61.09;99131.78;8581852;23;20178;-80
2021/08/12 04:22:57;;;;;;;7.40;6.50;;;;;;;21.31;60.74;99134.91;8582506;23;20210;-80
2021/08/12 04:26:18;;;;;;;6.40;5.73;;;;;;;21.30;59.69;99102.28;8582657;23;20236;-81
2021/08/12 04:29:40;;;;;;;8.37;6.57;;;;;;;21.09;60.56;99136.16;8580676;23;20189;-80
2021/08/12 04:33:02;;;;;;;7.77;7.07;;;;;;;21.13;60.65;99128.22;8614076;23;20206;-80
2021/08/12 04:36:23;;;;;;;7.07;6.37;;;;;;;21.20;60.99;99130.44;8616145;23;20188;-80
2021/08/12 04:39:46;;;;;;;7.50;6.80;;;;;;;21.38;60.44;99129.19;8633324;23;20170;-81
2021/08/12 04:43:08;;;;;;;6.60;6.00;;;;;;;21.70;59.03;99117.00;8636786;22;20198;-80
2021/08/12 04:46:29;;;;;;;9.40;6.53;;;;;;;21.47;59.26;99128.41;8622434;23;20188;-81
2021/08/12 04:49:51;;;;;;;7.83;6.17;;;;;;;21.72;59.81;99145.00;8621446;23;20660;-83
2021/08/12 04:53:13;;;;;;;10.57;7.07;;;;;;;21.63;59.75;99138.38;8619991;22;20194;-81
2021/08/12 04:56:36;;;;;;;7.90;7.10;;;;;;;21.77;59.35;99130.50;8623549;23;20170;-81
2021/08/12 04:59:57;;;;;;;8.60;6.40;;;;;;;21.41;58.71;99102.03;8621146;23;20183;-80
2021/08/12 05:03:19;;;;;;;7.53;6.23;;;;;;;21.71;59.06;99126.09;8619583;22;20205;-81
2021/08/12 05:06:40;;;;;;;8.83;6.90;;;;;;;21.85;59.42;99140.94;8622801;23;20182;-81
2021/08/12 05:10:02;;;;;;;8.10;6.03;;;;;;;22.14;58.19;99142.94;8621775;23;20196;-81
2021/08/12 05:13:25;;;;;;;6.63;5.97;;;;;;;22.27;58.36;99142.44;8621343;22;20218;-81
2021/08/12 05:16:46;;;;;;;7.00;6.20;;;;;;;22.29;58.58;99140.25;8622787;23;20184;-81
2021/08/12 05:20:09;;;;;;;7.10;6.17;;;;;;;22.55;58.47;99130.13;8620810;23;20181;-80
2021/08/12 05:23:30;;;;;;;8.10;6.53;;;;;;;22.06;59.27;99101.47;8618931;22;20209;-80
2021/08/12 05:26:52;;;;;;;8.60;6.80;;;;;;;21.66;61.26;99134.25;8619462;23;20181;-80
2021/08/12 05:30:15;;;;;;;8.60;6.63;;;;;;;21.95;60.87;99138.25;8629610;22;20170;-80
2021/08/12 05:33:37;;;;;;;8.20;6.03;;;;;;;22.63;59.24;99143.31;8616180;23;20181;-81
2021/08/12 05:36:59;;;;;;;7.20;6.20;;;;;;;22.76;58.01;99149.09;8632050;23;20179;-81
2021/08/12 05:40:21;;;;;;;6.33;5.77;;;;;;;22.58;57.83;99094.69;8616602;22;20483;-80
2021/08/12 05:43:42;;;;;;;8.13;6.57;;;;;;;22.95;57.32;99141.13;8615321;23;20228;-81
2021/08/12 05:47:06;;;;;;;8.00;6.37;;;;;;;23.10;57.20;99155.69;8616960;23;20178;-80
2021/08/12 05:50:27;;;;;;;7.63;6.67;;;;;;;23.20;57.61;99141.13;8629932;22;20652;-80
2021/08/12 05:53:49;;;;;;;7.40;6.50;;;;;;;23.18;57.75;99159.84;8631003;23;20179;-81
2021/08/12 05:57:10;;;;;;;11.77;6.20;;;;;;;23.88;56.14;99146.69;8616294;23;20181;-81
2021/08/12 06:00:32;;;;;;;7.57;6.57;;;;;;;24.15;55.67;99163.66;8615702;22;20204;-81
2021/08/12 06:03:55;;;;;;;7.80;6.20;;;;;;;24.54;54.96;99158.16;8617903;23;20205;-80
2021/08/12 06:07:17;;;;;;;6.80;6.10;;;;;;;24.41;54.84;99131.22;8617853;23;20188;-80
2021/08/12 06:10:39;;;;;;;7.10;6.07;;;;;;;24.74;54.21;99169.91;8617739;22;20259;-81
2021/08/12 06:14:01;;;;;;;6.53;5.87;;;;;;;24.69;54.09;99169.09;8618914;23;20178;-81
2021/08/12 06:17:22;;;;;;;7.50;5.90;;;;;;;24.79;54.58;99166.28;8620759;23;20183;-81
2021/08/12 06:20:45;;;;;;;7.10;6.50;;;;;;;24.46;54.85;99158.75;8618784;22;20499;-81
2021/08/12 06:24:07;;;;;;;7.93;6.33;;;;;;;24.59;54.60;99172.75;8620450;23;20689;-80
2021/08/12 06:27:28;;;;;;;8.87;5.97;;;;;;;24.20;54.91;99160.84;8621237;23;20224;-81
2021/08/12 06:30:51;;;;;;;6.30;5.70;;;;;;;24.54;55.29;99158.97;8633527;22;20252;-80
2021/08/12 06:34:12;;;;;;;6.63;5.90;;;;;;;24.92;54.92;99154.56;8621412;23;20160;-81
2021/08/12 06:37:43;;;;;;;6.80;6.00;;;;;;;25.20;53.71;99138.00;8621967;23;20186;-81
2021/08/12 06:41:07;;;;;;;6.70;6.00;;;;;;;25.55;51.56;99112.00;8620389;22;20206;-81
2021/08/12 06:44:29;;;;;;;7.37;5.60;;;;;;;25.23;52.03;99134.69;8624096;23;20226;-81
2021/08/12 06:47:51;;;;;;;8.93;6.20;;;;;;;25.28;52.47;99120.03;8637461;23;20175;-81
2021/08/12 06:51:13;;;;;;;8.17;5.40;;;;;;;26.61;49.36;99126.84;8620655;22;20630;-81
2021/08/12 06:54:35;;;;;;;7.73;5.47;;;;;;;26.98;48.15;99135.09;8622309;23;20182;-81
2021/08/12 06:57:58;;;;;;;8.20;4.93;;;;;;;27.85;46.02;99135.94;8623661;23;20191;-81
2021/08/12 07:01:19;;;;;;;5.97;5.37;;;;;;;27.66;46.12;99141.56;8623900;22;20258;-81
2021/08/12 07:04:41;;;;;;;7.10;5.43;;;;;;;28.34;44.41;99136.78;8624381;23;20526;-81
2021/08/12 07:08:05;;;;;;;5.53;5.00;;;;;;;28.87;43.67;99128.59;8623597;23;20196;-81
2021/08/12 07:11:28;;;;;;;6.00;5.40;;;;;;;28.83;43.40;99145.06;8624544;22;20204;-81
2021/08/12 07:14:49;;;;;;;7.17;5.23;;;;;;;29.08;42.45;99151.97;8637440;23;20204;-81
2021/08/12 07:18:11;;;;;;;6.17;5.53;;;;;;;28.89;43.04;99143.81;8626825;23;20184;-81
2021/08/12 07:21:33;;;;;;;6.20;5.10;;;;;;;28.87;42.81;99154.41;8640538;22;20197;-81
2021/08/12 07:24:54;;;;;;;5.87;5.10;;;;;;;28.59;43.10;99157.59;8619916;23;20208;-81
2021/08/12 07:28:17;;;;;;;7.30;5.23;;;;;;;28.59;43.57;99147.31;8622488;23;20190;-81
2021/08/12 07:31:39;;;;;;;5.83;5.23;;;;;;;27.73;45.77;99153.06;8638790;22;20208;-80
2021/08/12 07:35:01;;;;;;;6.67;5.40;;;;;;;26.99;47.30;99158.88;8623227;23;20183;-81
2021/08/12 07:38:22;;;;;;;8.00;5.70;;;;;;;25.98;49.94;99147.66;8635715;23;20181;-80
2021/08/12 07:41:44;;;;;;;5.43;4.93;;;;;;;26.63;49.20;99146.75;8620516;22;20213;-80
2021/08/12 07:45:11;;;;;;;7.13;4.53;;;;;;;27.90;46.60;99139.44;8635799;22;20201;-80
2021/08/12 07:48:33;;;;;;;5.67;5.03;;;;;;;29.04;43.88;99137.91;8639003;23;20487;-81
2021/08/12 07:51:54;;;;;;;5.40;4.47;;;;;;;30.12;41.94;99139.06;8626310;22;20207;-80
2021/08/12 07:55:16;;;;;;;7.03;4.80;;;;;;;30.16;41.84;99137.28;8626693;23;20169;-80
2021/08/12 07:58:37;;;;;;;5.23;4.60;;;;;;;29.55;41.93;99129.88;8629630;23;20657;-80
2021/08/12 08:02:00;;;;;;;5.07;4.43;;;;;;;30.08;41.68;99132.50;8622717;22;20551;-81
2021/08/12 08:05:23;;;;;;;4.67;4.13;;;;;;;31.14;39.29;99125.19;8617982;23;20205;-81
2021/08/12 08:08:45;;;;;;;5.80;4.63;;;;;;;31.95;38.01;99126.75;8632192;22;20180;-81
2021/08/12 08:12:07;;;;;;;6.13;4.63;;;;;;;32.27;37.86;99121.31;8632137;22;20198;-81
2021/08/12 08:15:29;;;;;;;5.67;5.13;;;;;;;31.34;38.72;99110.56;8616736;23;20185;-82
2021/08/12 08:18:52;;;;;;;5.70;5.10;;;;;;;31.60;39.91;99125.25;8626305;23;20175;-81
2021/08/12 08:22:14;;;;;;;7.33;5.10;;;;;;;31.85;39.66;99115.97;8615842;22;20204;-81
2021/08/12 08:25:36;;;;;;;4.67;4.27;;;;;;;32.44;37.55;99110.00;8617069;23;20213;-81
2021/08/12 08:28:57;;;;;;;6.77;4.90;;;;;;;32.84;36.53;99116.75;8617351;23;20192;-81
2021/08/12 08:32:19;;;;;;;6.43;4.90;;;;;;;33.03;36.45;99108.69;8619116;22;20216;-81
2021/08/12 08:35:42;;;;;;;5.50;4.67;;;;;;;33.05;37.09;99111.94;8617097;23;20183;-81
2021/08/12 08:39:04;;;;;;;6.20;5.20;;;;;;;31.78;40.10;99119.25;8631458;23;20550;-81
2021/08/12 08:42:25;;;;;;;5.53;4.83;;;;;;;31.37;41.27;99121.06;8632211;22;20203;-82
2021/08/12 08:45:47;;;;;;;5.77;4.63;;;;;;;30.78;41.86;99110.84;8619831;23;20218;-81
2021/08/12 08:49:11;;;;;;;5.03;4.50;;;;;;;32.39;39.23;99101.00;8617802;23;20189;-81
2021/08/12 08:52:36;;;;;;;7.10;5.03;;;;;;;30.23;42.85;99115.34;8618175;22;20209;-81
2021/08/12 08:55:57;;;;;;;5.60;4.70;;;;;;;30.39;43.11;99105.41;8619717;23;20184;-81
2021/08/12 08:59:19;;;;;;;5.73;5.13;;;;;;;30.61;42.03;99114.41;8620186;23;20180;-81
2021/08/12 09:02:41;;;;;;;6.10;4.93;;;;;;;32.44;40.11;99114.78;8619089;22;20278;-81
2021/08/12 09:06:02;;;;;;;5.10;4.57;;;;;;;32.94;38.36;99107.13;8632694;23;20692;-81
2021/08/12 09:09:26;;;;;;;11.00;4.80;;;;;;;32.55;39.62;99111.22;8618485;23;20195;-81
2021/08/12 09:12:48;;;;;;;6.23;4.93;;;;;;;33.78;36.89;99102.56;8616162;22;20265;-82
2021/08/12 09:16:31;;;;;;;9.20;4.97;;;;;;;34.51;35.84;99098.53;8616652;23;20185;-81
2021/08/12 09:20:02;;;;;;;6.73;4.70;;;;;;;33.09;37.68;99096.13;8616529;23;20176;-81
2021/08/12 09:23:26;;;;;;;6.03;4.50;;;;;;;33.94;36.54;99105.47;8616632;22;20209;-83
2021/08/12 09:26:49;;;;;;;5.63;4.70;;;;;;;34.66;35.28;99094.97;8618642;23;20185;-81
2021/08/12 09:30:13;;;;;;;6.03;5.00;;;;;;;34.74;35.47;99088.41;8617145;23;20184;-81
2021/08/12 09:33:36;;;;;;;5.90;4.70;;;;;;;35.10;34.40;99088.25;8615040;23;20178;-81
2021/08/12 09:37:04;;;;;;;5.17;4.77;;;;;;;34.81;35.18;99057.81;8629448;23;20631;-81
2021/08/12 09:40:26;;;;;;;5.37;4.80;;;;;;;35.24;34.61;99068.22;8617525;22;20187;-82
2021/08/12 09:43:49;;;;;;;6.23;4.23;;;;;;;35.07;34.06;99076.97;8615674;23;20560;-82
2021/08/12 09:47:13;;;;;;;7.30;4.70;;;;;;;32.61;36.43;99054.00;8612595;22;20213;-90
2021/08/12 09:50:38;;;;;;;4.57;4.17;;;;;;;33.31;37.02;99066.97;8627355;23;20166;-90
2021/08/12 09:54:03;;;;;;;5.13;4.63;;;;;;;33.88;35.29;99082.50;8624285;23;20177;-85
2021/08/12 09:57:25;;;;;;;5.87;4.57;;;;;;;34.13;35.03;99074.91;8615012;22;20224;-84
2021/08/12 10:00:51;;;;;;;5.63;4.50;;;;;;;32.99;35.85;99074.19;8616589;23;20256;-84
2021/08/12 10:04:25;;;;;;;4.90;4.27;;;;;;;33.82;35.76;99081.13;8619758;23;20242;-86
2021/08/12 10:07:48;;;;;;;4.73;4.33;;;;;;;34.66;33.57;99078.16;8620218;22;20204;-84
2021/08/12 10:11:19;;;;;;;5.47;4.60;;;;;;;34.56;34.45;99061.03;8620851;23;20552;-86
2021/08/12 10:14:40;;;;;;;6.73;4.70;;;;;;;35.14;32.06;99075.13;8632637;22;20525;-87
2021/08/12 10:18:05;;;;;;;5.40;4.30;;;;;;;34.55;33.38;99065.03;8617617;22;20205;-87
2021/08/12 10:21:30;;;;;;;8.80;4.67;;;;;;;34.91;33.19;99051.66;8654432;22;20249;-91
2021/08/12 10:24:55;;;;;;;6.20;4.63;;;;;;;34.94;32.57;99064.16;8654998;23;20252;-90
2021/08/12 10:28:19;;;;;;;7.90;4.30;;;;;;;34.80;33.50;99074.97;8630146;22;20209;-88
2021/08/12 10:31:48;;;;;;;6.50;4.33;;;;;;;35.53;31.09;99065.78;8632187;23;20667;-90
2021/08/12 10:35:11;;;;;;;7.20;4.83;;;;;;;35.01;32.36;99065.16;8637703;22;20174;-89
2021/08/12 10:38:35;;;;;;;5.43;4.30;;;;;;;35.84;31.72;99071.41;8627853;22;20672;-90
2021/08/12 10:41:56;;;;;;;4.80;4.40;;;;;;;35.39;30.03;99051.41;8631277;23;20174;-91
2021/08/12 10:45:19;;;;;;;6.07;4.37;;;;;;;36.19;29.39;99075.06;8630616;23;20199;-92
2021/08/12 10:48:41;;;;;;;6.83;4.67;;;;;;;36.53;27.77;99040.50;8631970;22;20209;-91
2021/08/12 10:52:06;;;;;;;6.50;4.53;;;;;;;37.07;28.22;99046.03;8616786;23;20631;-91
2021/08/12 10:55:27;;;;;;;7.20;4.70;;;;;;;36.36;28.44;99043.75;8622353;23;20178;-91
2021/08/12 10:58:51;;;;;;;6.93;4.80;;;;;;;36.04;29.05;99035.78;8627540;22;20201;-90
2021/08/12 11:02:43;;;;;;;4.93;4.43;;;;;;;36.84;28.03;99048.81;8630296;23;20181;-89
2021/08/12 11:06:05;;;;;;;5.13;4.40;;;;;;;36.86;28.18;99023.97;8646125;23;20205;-90
2021/08/12 11:09:57;;;;;;;6.37;4.70;;;;;;;37.15;27.40;99036.56;8632401;22;20209;-90
2021/08/12 11:13:33;;;;;;;5.67;4.57;;;;;;;35.57;27.74;98976.94;8633296;23;20206;-90
2021/08/12 11:16:56;;;;;;;7.57;5.17;;;;;;;36.12;29.62;99034.75;8646473;22;20212;-90
2021/08/12 11:20:31;;;;;;;4.83;4.43;;;;;;;36.34;28.62;99031.25;8642292;23;20174;-90
2021/08/12 11:23:55;;;;;;;6.20;5.00;;;;;;;36.64;28.13;99035.97;8624196;23;20300;-90
2021/08/12 11:31:59;;;;;;;6.47;4.97;;;;;;;36.93;27.15;99018.47;8493374;23;20666;-90
2021/08/12 11:39:48;;;;;;;4.77;4.37;;;;;;;36.06;29.37;99000.53;8359209;23;20230;-91
2021/08/12 11:43:15;;;;;;;6.50;5.33;;;;;;;36.24;28.92;98990.53;8345705;23;20178;-90
2021/08/12 11:46:37;;;;;;;6.07;4.97;;;;;;;36.82;27.63;99027.88;8339496;23;20200;-90
2021/08/12 11:50:00;;;;;;;5.67;5.10;;;;;;;35.44;29.42;99023.06;8350692;23;20214;-92
2021/08/12 11:53:37;;;;;;;6.80;5.30;;;;;;;35.71;31.05;99024.16;8359257;23;20198;-91
2021/08/12 12:01:23;;;;;;;7.90;5.87;;;;;;;35.84;29.05;99020.88;8241711;24;20616;-91
2021/08/12 12:04:45;;;;;;;5.70;5.20;;;;;;;35.73;27.83;98926.41;8235511;24;20204;-88
2021/08/12 12:08:08;;;;;;;6.13;5.50;;;;;;;35.55;28.95;98995.31;8277256;23;20195;-90
2021/08/12 12:11:30;;;;;;;7.07;5.40;;;;;;;36.40;28.41;99021.34;8301681;23;20184;-88
2021/08/12 12:15:07;;;;;;;6.87;5.07;;;;;;;36.74;27.43;99012.88;8323898;23;20185;-90
2021/08/12 12:18:35;;;;;;;7.00;5.63;;;;;;;36.71;27.52;98926.47;8434129;23;20201;-93
2021/08/12 12:21:56;;;;;;;5.63;5.13;;;;;;;37.76;25.92;98993.03;8416685;23;20182;-89
2021/08/12 12:25:20;;;;;;;6.10;5.20;;;;;;;37.41;26.71;99009.31;8406176;23;20201;-89
2021/08/12 12:28:43;;;;;;;7.37;5.70;;;;;;;36.39;26.59;98955.94;8405240;23;20209;-90
2021/08/12 12:32:09;;;;;;;6.27;5.30;;;;;;;35.08;28.96;99020.50;8436047;23;20177;-88
2021/08/12 12:35:33;;;;;;;6.43;5.60;;;;;;;34.80;30.53;99013.34;8465826;23;20197;-89
2021/08/12 12:38:56;;;;;;;5.73;5.23;;;;;;;36.19;27.40;99020.91;8573674;23;20203;-87
2021/08/12 12:42:18;;;;;;;6.10;5.50;;;;;;;35.57;26.78;99030.22;8588328;23;20517;-84
2021/08/12 12:45:49;;;;;;;5.93;5.43;;;;;;;36.33;26.59;99008.00;8575695;23;20529;-84
2021/08/12 12:49:24;;;;;;;6.33;5.73;;;;;;;35.92;25.86;98932.88;8620266;23;20706;-83
2021/08/12 12:53:08;;;;;;;6.47;5.20;;;;;;;36.66;25.20;98971.75;8622939;23;20562;-85
2021/08/12 12:56:33;;;;;;;6.13;5.47;;;;;;;35.21;27.74;99015.63;8608634;22;20174;-86
2021/08/12 12:59:55;;;;;;;7.03;5.73;;;;;;;35.71;27.11;99010.13;8615639;23;20170;-86
2021/08/12 13:03:17;;;;;;;8.90;5.73;;;;;;;34.70;28.71;99011.84;8617038;23;20181;-86
2021/08/12 13:06:40;;;;;;;7.37;5.20;;;;;;;35.88;26.92;98979.69;8616535;22;20211;-86
2021/08/12 13:10:20;;;;;;;7.60;5.93;;;;;;;35.98;26.52;98962.28;8635402;23;20617;-89
2021/08/12 13:13:44;;;;;;;5.43;4.97;;;;;;;37.00;24.76;99001.72;8619607;23;20172;-89
2021/08/12 13:17:05;;;;;;;6.43;5.20;;;;;;;37.26;24.54;98998.19;8618387;22;20194;-89
2021/08/12 13:20:39;;;;;;;8.60;5.20;;;;;;;37.04;23.90;98991.38;8620585;23;20675;-89
2021/08/12 13:24:02;;;;;;;6.03;5.33;;;;;;;36.95;25.20;98990.00;8616787;23;20244;-83
2021/08/12 13:27:25;;;;;;;7.00;5.77;;;;;;;36.29;25.10;98987.44;8622375;22;20204;-88
2021/08/12 13:30:47;;;;;;;6.70;4.93;;;;;;;36.32;25.46;98975.44;8641813;23;20276;-89
2021/08/12 13:34:10;;;;;;;5.60;5.10;;;;;;;36.21;24.69;98960.41;8632177;23;20177;-89
2021/08/12 13:37:31;;;;;;;6.07;5.47;;;;;;;37.00;23.62;98979.22;8617112;22;20201;-90
2021/08/12 13:41:21;;;;;;;5.87;5.37;;;;;;;35.87;24.56;98980.88;8637528;22;20178;-87
2021/08/12 13:44:44;;;;;;;6.00;5.50;;;;;;;35.53;24.72;98984.44;8639504;22;20193;-87
2021/08/12 13:48:06;;;;;;;7.43;4.90;;;;;;;36.15;24.85;98955.41;8630729;22;20206;-88
2021/08/12 13:55:04;;;;;;;6.40;5.53;;;;;;;37.27;22.78;98980.13;8606420;23;20174;-87
2021/08/12 13:58:26;;;;;;;6.27;5.67;;;;;;;36.74;23.77;98970.72;8633060;22;20861;-88
2021/08/12 14:06:17;;;;;;;6.00;4.73;;;;;;;36.93;23.22;98973.47;8599481;22;20211;-88
2021/08/12 14:09:39;;;;;;;5.70;5.20;;;;;;;36.03;23.15;98980.81;8639140;23;20544;-88
2021/08/12 14:13:01;;;;;;;6.33;5.73;;;;;;;36.44;22.81;98966.88;8627861;23;20188;-88
2021/08/12 14:16:22;;;;;;;5.97;5.20;;;;;;;36.69;23.46;98971.03;8640730;22;20189;-88
2021/08/12 14:19:44;;;;;;;5.77;5.17;;;;;;;36.28;23.37;98983.00;8630458;23;20178;-88
2021/08/12 14:23:07;;;;;;;8.10;5.20;;;;;;;35.89;22.14;98960.88;8644860;23;20176;-88
2021/08/12 14:35:03;;;;;;;5.90;4.47;;;;;;;35.33;23.08;98965.94;8650354;23;20170;-87
2021/08/12 14:38:26;;;;;;;8.23;5.30;;;;;;;36.51;23.74;98955.78;8630758;22;20707;-87
2021/08/12 14:41:48;;;;;;;5.73;5.00;;;;;;;36.38;21.70;98954.31;8642091;23;20178;-87
2021/08/12 14:45:11;;;;;;;6.17;5.37;;;;;;;36.60;23.50;98944.31;8642762;23;20194;-87
2021/08/12 14:48:34;;;;;;;6.00;5.50;;;;;;;36.13;23.83;98949.34;8641892;22;20212;-89
2021/08/12 14:51:56;;;;;;;6.23;5.63;;;;;;;36.77;23.03;98936.22;8638674;23;20497;-88
2021/08/12 14:55:23;;;;;;;5.87;5.37;;;;;;;37.04;23.92;98939.91;8627569;23;20667;-88
2021/08/12 14:58:45;;;;;;;5.77;5.27;;;;;;;36.93;23.23;98897.56;8642517;22;20287;-88
2021/08/12 15:02:10;;;;;;;5.83;5.33;;;;;;;37.33;22.34;98950.50;8646306;23;20174;-90
2021/08/12 15:05:32;;;;;;;6.47;5.33;;;;;;;36.95;22.76;98945.00;8632888;23;20202;-87
2021/08/12 15:08:59;;;;;;;6.43;5.83;;;;;;;36.90;22.55;98948.13;8630583;22;20202;-88
2021/08/12 15:12:25;;;;;;;6.10;5.50;;;;;;;36.87;22.85;98918.75;8631623;23;20684;-88
2021/08/12 15:15:47;;;;;;;7.70;5.57;;;;;;;36.53;22.96;98938.53;8645439;23;20164;-88
2021/08/12 15:19:09;;;;;;;5.67;5.17;;;;;;;36.16;23.26;98937.38;8645454;22;20204;-87
2021/08/12 15:22:30;;;;;;;6.20;5.60;;;;;;;36.02;23.47;98943.50;8631568;23;20182;-88
2021/08/12 15:25:52;;;;;;;6.20;5.60;;;;;;;35.89;23.86;98944.81;8630842;23;20208;-87
2021/08/12 15:29:15;;;;;;;7.70;5.50;;;;;;;36.13;25.01;98938.13;8640991;22;20194;-87
2021/08/12 15:32:40;;;;;;;7.33;5.53;;;;;;;35.62;24.28;98928.13;8644446;23;20234;-86
2021/08/12 15:36:03;;;;;;;6.77;5.07;;;;;;;36.66;23.01;98926.78;8641892;23;20602;-89
2021/08/12 15:39:25;;;;;;;6.23;5.63;;;;;;;35.96;23.07;98905.66;8636532;22;20198;-88
2021/08/12 15:42:48;;;;;;;5.77;5.17;;;;;;;36.06;23.30;98916.31;8628943;23;20182;-89
2021/08/12 15:46:21;;;;;;;5.93;5.23;;;;;;;36.82;22.59;98921.03;8646054;23;20282;-86
2021/08/12 15:49:43;;;;;;;5.70;5.20;;;;;;;36.64;22.72;98909.50;8577970;22;20328;-81
2021/08/12 15:53:05;;;;;;;5.77;5.17;;;;;;;35.49;23.28;98898.56;8574692;23;20180;-80
2021/08/12 15:56:27;;;;;;;6.30;5.73;;;;;;;35.99;22.75;98907.75;8574340;23;20183;-80
2021/08/12 15:59:48;;;;;;;6.03;5.43;;;;;;;36.03;22.46;98899.41;8574323;23;20702;-80
2021/08/12 16:03:11;;;;;;;6.73;5.90;;;;;;;35.85;22.86;98906.63;8575685;23;20194;-80
2021/08/12 16:06:33;;;;;;;5.70;5.13;;;;;;;35.67;23.55;98902.59;8575038;23;20264;-80
2021/08/12 16:09:54;;;;;;;6.00;5.13;;;;;;;34.67;24.38;98906.06;8575147;23;20206;-80
2021/08/12 16:13:16;;;;;;;5.47;5.07;;;;;;;35.43;23.92;98897.25;8575343;23;20183;-80
2021/08/12 16:16:38;;;;;;;6.00;5.47;;;;;;;35.78;23.19;98895.25;8574865;23;20609;-80
2021/08/12 16:20:01;;;;;;;6.73;6.03;;;;;;;35.31;24.30;98894.56;8575356;23;20183;-80
2021/08/12 16:23:22;;;;;;;5.37;4.83;;;;;;;35.88;23.65;98881.44;8576328;23;20186;-80
2021/08/12 16:26:44;;;;;;;7.83;5.70;;;;;;;35.62;24.21;98889.66;8575637;23;20245;-80
2021/08/12 16:30:07;;;;;;;6.80;5.70;;;;;;;34.78;26.08;98889.59;8574775;23;20182;-80
2021/08/12 16:33:29;;;;;;;8.83;5.97;;;;;;;34.50;26.84;98886.81;8576239;23;20484;-80
2021/08/12 16:36:52;;;;;;;7.27;6.30;;;;;;;34.88;26.61;98881.44;8576127;23;20268;-80
2021/08/12 16:40:14;;;;;;;6.47;5.77;;;;;;;35.22;26.68;98877.06;8575119;23;20182;-80
2021/08/12 16:43:36;;;;;;;7.80;5.63;;;;;;;34.30;27.91;98878.69;8576492;23;20252;-80
2021/08/12 16:46:58;;;;;;;5.60;5.00;;;;;;;34.56;27.04;98887.38;8593111;23;20672;-80
2021/08/12 16:50:19;;;;;;;6.17;5.57;;;;;;;34.12;27.56;98878.13;8616416;23;20173;-80
2021/08/12 16:53:42;;;;;;;7.40;5.70;;;;;;;34.88;27.73;98881.44;8616962;23;20189;-80
2021/08/12 16:57:04;;;;;;;6.03;5.43;;;;;;;34.26;28.91;98884.16;8616681;22;20198;-80
2021/08/12 17:00:26;;;;;;;6.13;5.33;;;;;;;34.34;29.25;98873.97;8615816;23;20629;-80
2021/08/12 17:03:48;;;;;;;7.37;5.70;;;;;;;34.48;29.16;98875.16;8616736;23;20185;-80
2021/08/12 17:07:09;;;;;;;6.50;5.83;;;;;;;34.40;29.22;98870.56;8617230;22;20285;-80
2021/08/12 17:10:36;;;;;;;6.70;6.10;;;;;;;34.22;29.42;98874.00;8621158;23;20192;-80
2021/08/12 17:13:58;;;;;;;6.47;5.70;;;;;;;34.04;29.41;98876.31;8623091;23;20169;-80
2021/08/12 17:17:19;;;;;;;6.50;5.50;;;;;;;33.40;30.58;98869.16;8622560;22;20209;-81
2021/08/12 17:20:41;;;;;;;6.23;5.63;;;;;;;34.03;30.58;98876.66;8620133;23;20177;-79
2021/08/12 17:24:03;;;;;;;8.13;6.20;;;;;;;34.10;30.09;98876.88;8618952;23;20185;-80
2021/08/12 17:27:26;;;;;;;6.83;5.73;;;;;;;34.07;31.01;98872.78;8619279;22;20321;-80
2021/08/12 17:30:47;;;;;;;6.87;5.90;;;;;;;33.96;33.23;98873.69;8619040;23;20512;-80
2021/08/12 17:34:09;;;;;;;8.10;6.10;;;;;;;33.61;33.55;98876.19;8618916;23;20180;-79
2021/08/12 17:37:31;;;;;;;7.53;6.00;;;;;;;33.30;34.45;98864.84;8632626;22;20670;-79
2021/08/12 17:40:52;;;;;;;7.27;6.63;;;;;;;33.28;34.62;98883.16;8618281;23;20184;-79
2021/08/12 17:44:15;;;;;;;7.73;6.33;;;;;;;33.02;35.36;98891.06;8618202;23;20184;-79
2021/08/12 17:47:40;;;;;;;9.00;6.37;;;;;;;32.70;35.59;98897.50;8617579;22;20204;-79
2021/08/12 17:51:01;;;;;;;6.67;6.07;;;;;;;32.76;35.82;98902.56;8618504;23;20700;-80
2021/08/12 17:54:23;;;;;;;10.03;6.57;;;;;;;32.31;37.85;98907.31;8618286;23;20196;-79
2021/08/12 17:57:45;;;;;;;7.57;6.77;;;;;;;32.05;37.95;98875.22;8616331;22;20203;-80
2021/08/12 18:22:34;;;;;;;8.70;6.63;;;;;;;30.55;42.77;98936.75;8635702;22;20170;-80
2021/08/12 18:25:56;;;;;;;8.17;6.70;;;;;;;30.62;42.46;98957.38;8625412;23;20211;-80
2021/08/12 18:29:18;;;;;;;7.47;6.70;;;;;;;30.53;42.49;98955.75;8621840;22;20207;-80
2021/08/12 18:32:39;;;;;;;8.93;6.60;;;;;;;30.41;42.95;98928.59;8619869;23;20207;-80
2021/08/12 18:36:06;;;;;;;7.47;6.17;;;;;;;30.33;43.75;98957.28;8617163;23;20616;-80
2021/08/12 18:39:29;;;;;;;11.70;7.27;;;;;;;30.44;44.00;98982.78;8617799;22;20201;-80
2021/08/12 18:42:53;;;;;;;9.80;7.10;;;;;;;29.88;45.71;98986.53;8617369;23;20181;-80
2021/08/12 18:46:15;;;;;;;10.33;7.00;;;;;;;29.49;46.75;98999.69;8617302;23;20305;-81
2021/08/12 18:49:36;;;;;;;7.97;7.03;;;;;;;29.38;47.04;98988.03;8615917;22;20215;-80
2021/08/12 18:52:58;;;;;;;8.17;7.00;;;;;;;29.34;47.31;99003.75;8619031;23;20182;-81
2021/08/12 18:56:21;;;;;;;9.57;7.27;;;;;;;29.26;47.98;99012.84;8618652;23;20186;-81
2021/08/12 18:59:43;;;;;;;8.73;6.80;;;;;;;28.74;48.88;98990.72;8618233;22;20221;-81
2021/08/12 19:03:05;;;;;;;8.73;6.87;;;;;;;28.96;48.60;98993.47;8618261;23;20177;-80
2021/08/12 19:06:26;;;;;;;8.03;6.90;;;;;;;29.14;47.92;98998.75;8609507;23;20222;-81
2021/08/12 19:09:48;;;;;;;8.00;7.20;;;;;;;29.12;48.04;99017.72;8612279;22;20222;-81
2021/08/12 19:13:11;;;;;;;10.33;7.70;;;;;;;28.43;50.01;99028.72;8614228;23;20272;-79
2021/08/12 19:16:34;;;;;;;11.87;7.93;;;;;;;27.78;51.47;98975.63;8614381;23;20616;-81
2021/08/12 19:19:55;;;;;;;9.83;7.43;;;;;;;27.74;51.09;98988.44;8613932;22;20650;-82
2021/08/12 19:23:17;;;;;;;8.17;7.37;;;;;;;28.02;50.45;99025.25;8616880;23;20166;-80
2021/08/12 19:26:39;;;;;;;9.00;7.17;;;;;;;28.00;50.21;99031.09;8616651;22;20527;-80
2021/08/12 19:30:02;;;;;;;8.20;7.37;;;;;;;28.07;50.17;99025.94;8613184;23;20183;-79
2021/08/12 19:33:23;;;;;;;9.03;7.60;;;;;;;27.85;50.69;99031.44;8616101;23;20186;-80
2021/08/12 19:36:45;;;;;;;8.57;7.50;;;;;;;27.57;51.06;99023.47;8619130;22;20193;-80
2021/08/12 19:40:07;;;;;;;7.70;6.97;;;;;;;27.77;50.75;99026.63;8617868;23;20188;-81
2021/08/12 19:43:29;;;;;;;8.60;7.80;;;;;;;27.42;51.72;99034.88;8617977;23;20182;-81
2021/08/12 19:46:52;;;;;;;9.73;7.63;;;;;;;27.78;50.39;99030.25;8617743;22;20205;-81
2021/08/12 19:50:13;;;;;;;8.83;7.43;;;;;;;27.74;49.97;99026.41;8616854;23;20179;-80
2021/08/12 19:53:35;;;;;;;9.13;8.03;;;;;;;26.78;52.50;99035.00;8618859;23;20661;-81
2021/08/12 19:56:57;;;;;;;7.73;7.03;;;;;;;27.41;51.18;99019.38;8618757;22;20185;-80
2021/08/12 20:00:19;;;;;;;8.57;7.07;;;;;;;27.37;50.73;99013.63;8632066;23;20185;-81
2021/08/12 20:03:42;;;;;;;8.83;7.60;;;;;;;27.63;49.82;99028.59;8616171;23;20515;-83
2021/08/12 20:07:04;;;;;;;9.50;7.50;;;;;;;27.57;49.85;99024.28;8617371;22;20659;-80
2021/08/12 20:10:26;;;;;;;8.60;7.37;;;;;;;27.46;50.02;99030.34;8615773;23;20189;-81
2021/08/12 20:13:47;;;;;;;9.20;8.30;;;;;;;27.26;50.58;99033.53;8616683;23;20166;-80
2021/08/12 20:17:09;;;;;;;7.97;6.93;;;;;;;27.46;49.83;99045.03;8617829;22;20224;-82
2021/08/12 20:20:32;;;;;;;8.57;7.37;;;;;;;27.08;51.25;99038.00;8630404;23;20182;-80